createdAt,value
2023-03-02T00:01:21.568Z,25.38
2023-03-02T00:03:48.121Z,24.73
2023-03-02T00:06:14.729Z,24.17
2023-03-02T00:08:41.275Z,24.02
2023-03-02T00:11:07.846Z,23.95
2023-03-02T00:13:36.223Z,24.23
2023-03-02T00:16:02.812Z,24.13
2023-03-02T00:18:29.308Z,24.50
2023-03-02T00:20:55.737Z,23.73
2023-03-02T00:23:22.174Z,23.60
2023-03-02T00:25:48.680Z,25.02
2023-03-02T00:28:15.090Z,24.92
2023-03-02T00:30:41.578Z,24.33
2023-03-02T00:33:08.122Z,23.75
2023-03-02T00:35:41.276Z,23.17
2023-03-02T00:38:08.327Z,24.08
2023-03-02T00:40:35.406Z,23.42
2023-03-02T00:43:01.870Z,23.92
2023-03-02T00:45:28.252Z,23.48
2023-03-02T00:47:54.740Z,23.48
2023-03-02T00:50:21.191Z,23.77
2023-03-02T00:52:47.631Z,23.02
2023-03-02T00:55:14.076Z,22.85
2023-03-02T00:57:40.485Z,22.80
2023-03-02T01:00:07.198Z,23.95
2023-03-02T01:02:33.766Z,23.27
2023-03-02T01:05:00.307Z,23.50
2023-03-02T01:07:28.466Z,22.60
2023-03-02T01:09:55.066Z,22.63
2023-03-02T01:12:21.552Z,21.73
2023-03-02T01:14:48.906Z,22.73
2023-03-02T01:17:16.231Z,24.17
2023-03-02T01:19:42.760Z,22.23
2023-03-02T01:22:09.573Z,23.85
2023-03-02T01:24:36.014Z,23.13
2023-03-02T01:27:02.430Z,22.58
2023-03-02T01:29:29.047Z,22.58
2023-03-02T01:31:55.837Z,22.73
2023-03-02T01:34:22.316Z,23.27
2023-03-02T01:36:48.768Z,22.63
2023-03-02T01:39:16.019Z,23.40
2023-03-02T01:41:43.473Z,22.48
2023-03-02T01:44:28.799Z,23.25
2023-03-02T01:46:55.308Z,22.63
2023-03-02T01:49:21.988Z,23.30
2023-03-02T01:51:48.556Z,24.83
2023-03-02T01:54:17.369Z,23.65
2023-03-02T01:56:46.033Z,23.52
2023-03-02T01:59:14.302Z,24.70
2023-03-02T02:01:42.962Z,24.20
2023-03-02T02:04:09.793Z,23.95
2023-03-02T02:06:40.751Z,24.63
2023-03-02T02:09:09.410Z,24.60
2023-03-02T02:11:35.863Z,24.50
2023-03-02T02:14:02.915Z,24.92
2023-03-02T02:16:31.580Z,24.27
2023-03-02T02:18:58.382Z,23.92
2023-03-02T02:21:25.646Z,24.45
2023-03-02T02:23:52.002Z,23.95
2023-03-02T02:26:27.353Z,24.85
2023-03-02T02:29:02.344Z,25.00
2023-03-02T02:31:43.213Z,25.27
2023-03-02T02:34:25.033Z,25.02
2023-03-02T02:36:54.513Z,25.33
2023-03-02T02:39:23.419Z,25.60
2023-03-02T02:41:50.962Z,24.40
2023-03-02T02:44:18.519Z,24.60
2023-03-02T02:46:45.128Z,24.52
2023-03-02T02:49:21.322Z,24.88
2023-03-02T02:51:47.748Z,24.52
2023-03-02T02:54:17.663Z,24.30
2023-03-02T02:56:44.537Z,26.00
2023-03-02T02:59:17.080Z,25.63
2023-03-02T03:01:43.597Z,25.52
2023-03-02T03:04:12.524Z,26.27
2023-03-02T03:06:48.811Z,25.95
2023-03-02T03:09:15.230Z,26.95
2023-03-02T03:11:43.529Z,26.90
2023-03-02T03:14:09.977Z,26.38
2023-03-02T03:16:37.277Z,27.13
2023-03-02T03:19:06.693Z,27.15
2023-03-02T03:21:33.088Z,27.58
2023-03-02T03:23:59.583Z,26.92
2023-03-02T03:26:26.115Z,27.52
2023-03-02T03:28:52.810Z,27.63
2023-03-02T03:31:19.372Z,27.02
2023-03-02T03:33:45.966Z,27.13
2023-03-02T03:36:12.509Z,27.75
2023-03-02T03:38:39.056Z,29.05
2023-03-02T03:41:05.481Z,28.90
2023-03-02T03:43:32.123Z,28.77
2023-03-02T03:45:58.639Z,28.92
2023-03-02T03:48:25.166Z,29.60
2023-03-02T03:50:51.577Z,29.67
2023-03-02T03:53:18.079Z,28.77
2023-03-02T03:55:44.542Z,28.88
2023-03-02T03:58:10.973Z,29.42
2023-03-02T04:00:37.510Z,29.45
2023-03-02T04:03:04.016Z,28.08
2023-03-02T04:05:31.703Z,27.23
2023-03-02T04:08:02.156Z,27.58
2023-03-02T04:10:29.716Z,27.67
2023-03-02T04:12:56.196Z,27.42
2023-03-02T04:15:22.797Z,26.35
2023-03-02T04:17:49.461Z,27.73
2023-03-02T04:20:16.793Z,26.77
2023-03-02T04:22:47.955Z,26.27
2023-03-02T04:25:15.278Z,26.05
2023-03-02T04:27:41.695Z,25.50
2023-03-02T04:30:08.772Z,25.70
2023-03-02T04:32:35.294Z,25.80
2023-03-02T04:35:01.833Z,24.80
2023-03-02T04:37:28.296Z,25.80
2023-03-02T04:39:54.738Z,25.20
2023-03-02T04:42:21.332Z,24.15
2023-03-02T04:44:48.082Z,24.85
2023-03-02T04:47:14.564Z,23.88
2023-03-02T04:49:40.997Z,23.92
2023-03-02T04:52:07.397Z,22.55
2023-03-02T04:54:33.939Z,22.70
2023-03-02T04:57:00.374Z,24.08
2023-03-02T04:59:27.620Z,22.98
2023-03-02T05:01:55.304Z,22.08
2023-03-02T05:04:21.974Z,22.88
2023-03-02T05:06:48.394Z,22.98
2023-03-02T05:09:15.163Z,21.48
2023-03-02T05:11:41.691Z,22.33
2023-03-02T05:14:09.818Z,22.02
2023-03-02T05:16:37.695Z,22.25
2023-03-02T05:19:05.047Z,22.23
2023-03-02T05:21:31.543Z,21.13
2023-03-02T05:23:58.108Z,21.40
2023-03-02T05:26:24.577Z,21.35
2023-03-02T05:28:53.015Z,20.67
2023-03-02T05:31:35.178Z,20.80
2023-03-02T05:34:02.714Z,21.83
2023-03-02T05:36:29.162Z,21.30
2023-03-02T05:38:55.621Z,20.80
2023-03-02T05:41:22.025Z,21.45
2023-03-02T05:43:48.461Z,20.67
2023-03-02T05:46:14.958Z,22.23
2023-03-02T05:48:42.492Z,21.88
2023-03-02T05:51:08.958Z,22.13
2023-03-02T05:53:35.375Z,22.08
2023-03-02T05:56:01.871Z,22.05
2023-03-02T05:58:28.270Z,21.88
2023-03-02T06:00:54.717Z,22.05
2023-03-02T06:03:21.190Z,21.30
2023-03-02T06:05:50.985Z,22.23
2023-03-02T06:08:18.469Z,22.88
2023-03-02T06:10:45.183Z,22.70
2023-03-02T06:13:11.559Z,24.02
2023-03-02T06:15:39.745Z,22.33
2023-03-02T06:18:06.429Z,23.20
2023-03-02T06:20:32.844Z,24.00
2023-03-02T06:22:59.286Z,22.60
2023-03-02T06:25:25.819Z,24.33
2023-03-02T06:27:53.732Z,24.10
2023-03-02T06:30:21.908Z,23.30
2023-03-02T06:32:48.414Z,23.95
2023-03-02T06:35:15.402Z,24.83
2023-03-02T06:37:44.187Z,23.40
2023-03-02T06:40:11.876Z,22.95
2023-03-02T06:42:38.882Z,23.25
2023-03-02T06:45:06.077Z,23.52
2023-03-02T06:47:33.413Z,23.63
2023-03-02T06:50:00.332Z,22.73
2023-03-02T06:52:27.599Z,22.90
2023-03-02T06:54:54.462Z,22.58
2023-03-02T06:57:21.003Z,22.95
2023-03-02T06:59:47.458Z,22.80
2023-03-02T07:02:14.030Z,23.08
2023-03-02T07:04:40.561Z,22.23
2023-03-02T07:07:06.982Z,22.83
2023-03-02T07:09:34.225Z,21.73
2023-03-02T07:12:00.853Z,21.45
2023-03-02T07:14:27.291Z,20.48
2023-03-02T07:16:53.744Z,20.67
2023-03-02T07:19:20.335Z,21.73
2023-03-02T07:21:46.746Z,20.98
2023-03-02T07:24:13.243Z,20.48
2023-03-02T07:26:39.654Z,21.90
2023-03-02T07:29:06.070Z,21.00
2023-03-02T07:31:32.652Z,21.08
2023-03-02T07:33:59.184Z,21.33
2023-03-02T07:36:26.413Z,20.85
2023-03-02T07:38:52.874Z,20.85
2023-03-02T07:41:19.299Z,19.63
2023-03-02T07:43:45.783Z,20.63
2023-03-02T07:46:12.299Z,20.52
2023-03-02T07:48:38.699Z,20.45
2023-03-02T07:51:05.841Z,19.67
2023-03-02T07:53:32.825Z,20.70
2023-03-02T07:56:01.371Z,19.85
2023-03-02T07:58:27.874Z,19.92
2023-03-02T08:00:54.326Z,18.95
2023-03-02T08:03:20.810Z,18.08
2023-03-02T08:05:47.195Z,21.00
2023-03-02T08:08:13.595Z,18.88
2023-03-02T08:10:39.961Z,19.25
2023-03-02T08:13:06.381Z,18.27
2023-03-02T08:15:32.883Z,18.77
2023-03-02T08:17:59.296Z,19.25
2023-03-02T08:20:25.819Z,19.75
2023-03-02T08:22:52.245Z,18.35
2023-03-02T08:25:18.724Z,18.75
2023-03-02T08:27:46.064Z,19.35
2023-03-02T08:30:12.925Z,18.55
2023-03-02T08:32:39.621Z,18.77
2023-03-02T08:35:06.347Z,18.95
2023-03-02T08:37:33.643Z,18.15
2023-03-02T08:40:00.062Z,18.25
2023-03-02T08:42:26.461Z,18.70
2023-03-02T08:44:52.826Z,19.25
2023-03-02T08:47:19.240Z,18.33
2023-03-02T08:49:46.885Z,18.10
2023-03-02T08:52:15.439Z,18.20
2023-03-02T08:54:42.163Z,18.25
2023-03-02T08:57:10.890Z,18.20
2023-03-02T08:59:37.325Z,18.48
2023-03-02T09:02:03.788Z,18.40
2023-03-02T09:04:30.381Z,18.80
2023-03-02T09:06:56.985Z,18.58
2023-03-02T09:09:23.401Z,18.40
2023-03-02T09:11:52.929Z,18.85
2023-03-02T09:14:19.789Z,17.77
2023-03-02T09:16:47.008Z,17.42
2023-03-02T09:19:13.850Z,18.33
2023-03-02T09:21:40.253Z,16.58
2023-03-02T09:24:07.145Z,18.30
2023-03-02T09:26:34.117Z,18.00
2023-03-02T09:29:00.758Z,17.48
2023-03-02T09:31:30.002Z,17.45
2023-03-02T09:33:57.146Z,16.92
2023-03-02T09:36:24.589Z,17.77
2023-03-02T09:38:51.427Z,17.08
2023-03-02T09:41:20.871Z,16.92
2023-03-02T09:44:05.998Z,17.35
2023-03-02T09:46:44.720Z,16.45
2023-03-02T09:49:22.408Z,16.73
2023-03-02T09:51:54.515Z,16.48
2023-03-02T09:54:24.563Z,16.02
2023-03-02T09:56:54.974Z,15.50
2023-03-02T09:59:38.667Z,15.25
2023-03-02T10:02:23.591Z,15.60
2023-03-02T10:04:54.535Z,15.20
2023-03-02T10:07:31.259Z,15.35
2023-03-02T10:10:01.785Z,14.98
2023-03-02T10:12:40.384Z,14.85
2023-03-02T10:15:19.412Z,13.93
2023-03-02T10:17:59.616Z,13.57
2023-03-02T10:20:25.950Z,14.13
2023-03-02T10:22:54.452Z,13.63
2023-03-02T10:25:24.103Z,13.52
2023-03-02T10:27:52.041Z,13.48
2023-03-02T10:30:27.835Z,12.75
2023-03-02T10:32:56.010Z,13.23
2023-03-02T10:35:24.089Z,11.80
2023-03-02T10:38:07.329Z,12.15
2023-03-02T10:40:39.737Z,12.07
2023-03-02T10:45:32.653Z,11.27
2023-03-02T10:48:06.672Z,11.75
2023-03-02T10:50:33.640Z,11.55
2023-03-02T10:53:02.444Z,11.48
2023-03-02T10:55:30.035Z,10.43
2023-03-02T10:58:04.346Z,10.80
2023-03-02T11:00:31.578Z,9.65
2023-03-02T11:03:06.469Z,10.07
2023-03-02T11:05:37.090Z,10.82
2023-03-02T11:08:09.509Z,10.43
2023-03-02T11:13:15.707Z,9.55
2023-03-02T11:15:49.313Z,9.60
2023-03-02T11:18:27.827Z,9.52
2023-03-02T11:21:05.649Z,9.57
2023-03-02T11:23:53.579Z,9.75
2023-03-02T11:26:28.575Z,9.18
2023-03-02T11:29:00.603Z,9.27
2023-03-02T11:31:33.564Z,9.05
2023-03-02T11:34:27.378Z,8.88
2023-03-02T11:37:13.390Z,8.82
2023-03-02T11:39:55.640Z,8.73
2023-03-02T11:44:48.997Z,8.63
2023-03-02T11:47:16.171Z,8.70
2023-03-02T11:49:45.715Z,8.10
2023-03-02T11:52:20.432Z,8.55
2023-03-02T11:54:52.912Z,8.88
2023-03-02T11:57:31.234Z,7.95
2023-03-02T11:59:58.683Z,8.63
2023-03-02T12:02:26.021Z,8.02
2023-03-02T12:05:04.350Z,8.02
2023-03-02T12:07:30.981Z,7.72
2023-03-02T12:10:08.626Z,7.15
2023-03-02T12:12:38.818Z,7.50
2023-03-02T12:15:24.902Z,7.30
2023-03-02T12:17:52.095Z,7.45
2023-03-02T12:20:24.446Z,7.47
2023-03-02T12:22:50.926Z,6.88
2023-03-02T12:25:20.488Z,7.63
2023-03-02T12:27:48.233Z,7.38
2023-03-02T12:30:24.610Z,7.40
2023-03-02T12:33:03.983Z,6.80
2023-03-02T12:35:34.358Z,6.70
2023-03-02T12:38:02.803Z,6.85
2023-03-02T12:40:47.882Z,6.35
2023-03-02T12:43:20.084Z,6.22
2023-03-02T12:45:46.601Z,6.32
2023-03-02T12:48:23.961Z,6.32
2023-03-02T12:50:52.368Z,6.25
2023-03-02T12:53:19.895Z,6.25
2023-03-02T12:55:46.544Z,6.20
2023-03-02T12:58:18.152Z,6.15
2023-03-02T13:00:49.529Z,5.80
2023-03-02T13:03:16.052Z,6.22
2023-03-02T13:05:42.507Z,5.78
2023-03-02T13:08:20.716Z,5.65
2023-03-02T13:10:52.176Z,6.03
2023-03-02T13:13:20.706Z,6.13
2023-03-02T13:15:54.875Z,5.88
2023-03-02T13:18:22.561Z,4.78
2023-03-02T13:20:49.827Z,5.63
2023-03-02T13:23:17.233Z,5.18
2023-03-02T13:25:47.977Z,5.53
2023-03-02T13:28:34.016Z,5.53
2023-03-02T13:31:02.820Z,4.35
2023-03-02T13:33:30.299Z,4.85
2023-03-02T13:35:57.245Z,4.82
2023-03-02T13:38:26.457Z,4.60
2023-03-02T13:40:53.937Z,4.70
2023-03-02T13:43:26.607Z,4.70
2023-03-02T13:45:53.053Z,4.90
2023-03-02T13:48:19.606Z,4.45
2023-03-02T13:50:59.806Z,4.70
2023-03-02T13:53:27.486Z,4.60
2023-03-02T13:55:54.518Z,4.38
2023-03-02T13:58:21.430Z,4.80
2023-03-02T14:00:48.160Z,4.55
2023-03-02T14:03:22.376Z,3.97
2023-03-02T14:05:48.858Z,3.80
2023-03-02T14:08:15.292Z,3.97
2023-03-02T14:10:42.489Z,4.00
2023-03-02T14:13:12.983Z,3.80
2023-03-02T14:15:46.604Z,4.15
2023-03-02T14:18:35.572Z,4.25
2023-03-02T14:21:02.189Z,3.72
2023-03-02T14:23:28.713Z,3.47
2023-03-02T14:25:55.925Z,3.40
2023-03-02T14:28:30.348Z,3.85
2023-03-02T14:30:58.071Z,3.85
2023-03-02T14:33:25.460Z,3.53
2023-03-02T14:35:53.026Z,3.22
2023-03-02T14:38:20.352Z,3.38
2023-03-02T14:40:46.882Z,3.50
2023-03-02T14:43:13.444Z,3.40
2023-03-02T14:45:39.868Z,3.38
2023-03-02T14:48:06.324Z,3.30
2023-03-02T14:50:35.557Z,3.28
2023-03-02T14:53:02.112Z,2.90
2023-03-02T14:55:29.538Z,3.45
2023-03-02T14:57:58.665Z,3.42
2023-03-02T15:00:25.613Z,3.17
2023-03-02T15:02:52.439Z,3.25
2023-03-02T15:05:19.296Z,3.30
2023-03-02T15:07:45.829Z,3.30
2023-03-02T15:10:16.519Z,3.28
2023-03-02T15:12:43.088Z,3.28
2023-03-02T15:15:09.871Z,2.97
2023-03-02T15:17:36.333Z,3.13
2023-03-02T15:20:02.984Z,3.42
2023-03-02T15:22:29.383Z,3.33
2023-03-02T15:24:55.868Z,3.40
2023-03-02T15:27:23.755Z,3.05
2023-03-02T15:29:50.489Z,3.13
2023-03-02T15:32:17.212Z,3.38
2023-03-02T15:34:43.942Z,2.83
2023-03-02T15:37:11.654Z,2.80
2023-03-02T15:39:38.352Z,3.00
2023-03-02T15:42:05.455Z,2.75
2023-03-02T15:44:31.995Z,2.92
2023-03-02T15:46:59.095Z,2.97
2023-03-02T15:49:28.113Z,3.38
2023-03-02T15:51:57.464Z,3.65
2023-03-02T15:54:27.619Z,3.35
2023-03-02T15:56:54.301Z,3.83
2023-03-02T15:59:21.762Z,3.95
2023-03-02T16:01:48.483Z,4.40
2023-03-02T16:04:15.076Z,5.25
2023-03-02T16:06:41.716Z,5.55
2023-03-02T16:09:08.146Z,6.10
2023-03-02T16:11:34.557Z,6.53
2023-03-02T16:14:00.998Z,6.80
2023-03-02T16:16:27.759Z,7.20
2023-03-02T16:18:55.016Z,7.30
2023-03-02T16:21:22.110Z,8.15
2023-03-02T16:23:48.620Z,7.82
2023-03-02T16:26:16.512Z,9.02
2023-03-02T16:28:43.062Z,9.93
2023-03-02T16:31:11.089Z,11.85
2023-03-02T16:33:37.588Z,12.50
2023-03-02T16:36:04.119Z,13.70
2023-03-02T16:38:30.548Z,13.50
2023-03-02T16:40:57.309Z,12.82
2023-03-02T16:43:24.477Z,13.98
2023-03-02T16:45:51.610Z,15.70
2023-03-02T16:48:18.160Z,15.35
2023-03-02T16:50:44.596Z,16.27
2023-03-02T16:53:11.060Z,16.17
2023-03-02T16:55:37.513Z,16.42
2023-03-02T16:58:03.977Z,17.80
2023-03-02T17:00:31.332Z,16.15
2023-03-02T17:02:57.814Z,17.40
2023-03-02T17:05:24.318Z,18.20
2023-03-02T17:07:50.889Z,18.52
2023-03-02T17:10:18.586Z,18.20
2023-03-02T17:12:45.027Z,18.05
2023-03-02T17:15:13.553Z,19.00
2023-03-02T17:17:40.922Z,18.27
2023-03-02T17:20:08.211Z,18.95
2023-03-02T17:22:34.726Z,18.75
2023-03-02T17:25:03.523Z,19.00
2023-03-02T17:27:31.019Z,18.35
2023-03-02T17:29:57.579Z,20.15
2023-03-02T17:32:24.282Z,18.70
2023-03-02T17:34:50.900Z,18.67
2023-03-02T17:37:17.649Z,18.05
2023-03-02T17:39:44.294Z,20.00
2023-03-02T17:42:10.754Z,19.60
2023-03-02T17:44:40.709Z,19.10
2023-03-02T17:47:08.371Z,18.38
2023-03-02T17:49:38.094Z,18.83
2023-03-02T17:52:04.499Z,19.15
2023-03-02T17:54:30.878Z,18.95
2023-03-02T17:56:57.381Z,19.80
2023-03-02T17:59:23.849Z,19.40
2023-03-02T18:01:50.321Z,19.33
2023-03-02T18:04:16.781Z,20.08
2023-03-02T18:06:43.313Z,18.38
2023-03-02T18:09:10.178Z,19.70
2023-03-02T18:11:36.813Z,20.42
2023-03-02T18:14:03.762Z,19.90
2023-03-02T18:16:30.945Z,19.88
2023-03-02T18:18:57.764Z,18.88
2023-03-02T18:21:24.322Z,19.25
2023-03-02T18:23:50.864Z,18.83
2023-03-02T18:26:17.287Z,19.25
2023-03-02T18:28:43.700Z,19.27
2023-03-02T18:31:11.579Z,19.60
2023-03-02T18:33:38.095Z,18.73
2023-03-02T18:36:05.529Z,19.75
2023-03-02T18:38:32.984Z,19.30
2023-03-02T18:41:00.798Z,19.20
2023-03-02T18:43:27.797Z,19.35
2023-03-02T18:45:54.384Z,19.35
2023-03-02T18:48:21.077Z,19.05
2023-03-02T18:50:47.841Z,19.50
2023-03-02T18:53:14.313Z,20.13
2023-03-02T18:55:41.496Z,19.75
2023-03-02T18:58:08.493Z,20.95
2023-03-02T19:00:35.095Z,21.65
2023-03-02T19:03:01.568Z,20.27
2023-03-02T19:05:29.701Z,21.30
2023-03-02T19:07:59.023Z,21.85
2023-03-02T19:10:25.888Z,21.48
2023-03-02T19:12:52.707Z,21.52
2023-03-02T19:15:19.555Z,20.88
2023-03-02T19:17:46.053Z,22.38
2023-03-02T19:20:14.277Z,22.23
2023-03-02T19:22:40.883Z,22.02
2023-03-02T19:25:07.456Z,21.42
2023-03-02T19:27:33.938Z,22.17
2023-03-02T19:30:00.550Z,21.75
2023-03-02T19:32:27.055Z,21.77
2023-03-02T19:34:53.661Z,21.98
2023-03-02T19:37:20.194Z,21.33
2023-03-02T19:39:46.653Z,22.20
2023-03-02T19:42:13.129Z,21.70
2023-03-02T19:44:39.536Z,20.50
2023-03-02T19:47:06.331Z,20.40
2023-03-02T19:49:32.760Z,20.90
2023-03-02T19:52:00.661Z,20.77
2023-03-02T19:54:27.465Z,20.60
2023-03-02T19:56:54.226Z,20.27
2023-03-02T19:59:22.015Z,20.65
2023-03-02T20:01:49.433Z,21.40
2023-03-02T20:04:16.327Z,20.58
2023-03-02T20:06:42.797Z,20.98
2023-03-02T20:09:09.678Z,20.70
2023-03-02T20:11:36.299Z,20.40
2023-03-02T20:14:02.737Z,21.38
2023-03-02T20:16:29.975Z,20.98
2023-03-02T20:18:58.069Z,22.40
2023-03-02T20:21:26.657Z,21.60
2023-03-02T20:23:53.441Z,21.92
2023-03-02T20:26:20.392Z,21.23
2023-03-02T20:28:47.063Z,20.35
2023-03-02T20:31:14.748Z,20.58
2023-03-02T20:33:46.662Z,20.52
2023-03-02T20:36:13.731Z,21.08
2023-03-02T20:38:43.872Z,21.00
2023-03-02T20:41:11.811Z,20.02
2023-03-02T20:43:38.577Z,20.30
2023-03-02T20:46:06.267Z,19.83
2023-03-02T20:48:33.097Z,19.20
2023-03-02T20:50:59.832Z,18.10
2023-03-02T20:53:26.493Z,18.92
2023-03-02T20:55:53.944Z,18.73
2023-03-02T20:58:20.592Z,18.58
2023-03-02T21:00:48.650Z,17.90
2023-03-02T21:03:15.483Z,18.30
2023-03-02T21:05:42.359Z,16.83
2023-03-02T21:08:10.029Z,17.83
2023-03-02T21:10:37.297Z,18.75
2023-03-02T21:13:04.648Z,18.02
2023-03-02T21:15:31.355Z,18.27
2023-03-02T21:17:59.281Z,17.20
2023-03-02T21:20:27.560Z,17.88
2023-03-02T21:22:54.100Z,16.40
2023-03-02T21:25:20.735Z,17.05
2023-03-02T21:27:47.270Z,15.75
2023-03-02T21:30:25.486Z,16.58
2023-03-02T21:32:52.084Z,16.00
2023-03-02T21:35:23.417Z,16.50
2023-03-02T21:37:52.607Z,16.10
2023-03-02T21:40:20.941Z,15.15
2023-03-02T21:42:47.389Z,15.07
2023-03-02T21:45:13.910Z,15.80
2023-03-02T21:47:41.325Z,14.57
2023-03-02T21:50:16.253Z,14.98
2023-03-02T21:52:42.846Z,15.25
2023-03-02T21:55:09.836Z,14.25
2023-03-02T21:57:36.321Z,14.40
2023-03-02T22:00:04.712Z,14.68
2023-03-02T22:02:31.861Z,14.40
2023-03-02T22:04:58.764Z,14.75
2023-03-02T22:07:25.311Z,13.00
2023-03-02T22:09:52.639Z,13.80
2023-03-02T22:12:22.508Z,13.05
2023-03-02T22:14:49.066Z,13.70
2023-03-02T22:17:17.591Z,13.18
2023-03-02T22:19:44.712Z,13.05
2023-03-02T22:22:16.280Z,13.43
2023-03-02T22:24:45.856Z,12.70
2023-03-02T22:27:24.300Z,12.57
2023-03-02T22:29:52.314Z,13.18
2023-03-02T22:32:26.960Z,13.43
2023-03-02T22:34:55.196Z,12.38
2023-03-02T22:37:22.927Z,12.70
2023-03-02T22:39:50.453Z,12.00
2023-03-02T22:42:18.404Z,12.00
2023-03-02T22:44:47.522Z,12.30
2023-03-02T22:47:18.909Z,11.98
2023-03-02T22:49:46.039Z,11.60
2023-03-02T22:52:14.216Z,11.95
2023-03-02T22:54:40.745Z,11.43
2023-03-02T22:57:16.763Z,11.90
2023-03-02T22:59:43.222Z,11.05
2023-03-02T23:02:15.406Z,11.90
2023-03-02T23:04:42.135Z,11.60
2023-03-02T23:07:27.038Z,11.43
2023-03-02T23:09:53.439Z,11.38
2023-03-02T23:12:22.411Z,11.30
2023-03-02T23:14:50.216Z,12.05
2023-03-02T23:17:36.205Z,10.57
2023-03-02T23:20:03.126Z,11.93
2023-03-02T23:22:30.807Z,11.20
2023-03-02T23:24:57.261Z,11.40
2023-03-02T23:27:24.408Z,11.65
2023-03-02T23:29:51.698Z,11.15
2023-03-02T23:32:19.490Z,11.02
2023-03-02T23:34:46.270Z,11.55
2023-03-02T23:37:12.949Z,12.23
2023-03-02T23:39:39.383Z,11.55
2023-03-02T23:42:05.847Z,11.38
2023-03-02T23:44:32.338Z,12.10
2023-03-02T23:46:58.755Z,12.18
2023-03-02T23:49:25.325Z,12.13
2023-03-02T23:51:51.699Z,11.63
2023-03-02T23:54:18.177Z,11.63
2023-03-02T23:56:44.581Z,11.00
2023-03-02T23:59:11.063Z,11.55
